Time;durP1;ratioP1;P1;durP2;ratioP2;P2;SDS_P1;SDS_P2;PMS_P1;PMS_P2;Temp;Humidity;BMP_temperature;BMP_pressure;BME280_temperature;BME280_humidity;BME280_pressure;Samples;Min_cycle;Max_cycle;Signal;HPM_P1;HPM_P2
2020/12/03 00:00:56;;;;;;;121.80;48.50;;;;;;;-2.49;91.80;100797.16;4873440;29;20049;-59
2020/12/03 00:03:34;;;;;;;123.82;51.53;;;;;;;-2.57;91.51;100803.22;4869655;29;20059;-60
2020/12/03 00:06:05;;;;;;;121.35;49.83;;;;;;;-2.65;92.07;100806.66;4890853;29;20148;-58
2020/12/03 00:08:35;;;;;;;133.65;51.15;;;;;;;-2.51;91.81;100799.75;4872798;29;20060;-60
2020/12/03 00:11:02;;;;;;;123.25;50.20;;;;;;;-2.50;92.02;100801.47;4895212;29;20168;-59
2020/12/03 00:13:30;;;;;;;128.30;50.40;;;;;;;-2.51;91.79;100796.31;4891098;29;20398;-57
2020/12/03 00:15:58;;;;;;;128.73;53.80;;;;;;;-2.51;91.49;100788.59;4874617;29;20049;-61
2020/12/03 00:18:27;;;;;;;133.27;52.08;;;;;;;-2.46;91.48;100794.59;4883245;29;20084;-54
2020/12/03 00:20:54;;;;;;;119.03;50.30;;;;;;;-2.50;91.46;100787.72;4869935;29;20053;-59
2020/12/03 00:23:21;;;;;;;127.30;51.40;;;;;;;-2.58;91.42;100791.16;4884964;29;20053;-55
2020/12/03 00:25:49;;;;;;;114.18;47.80;;;;;;;-2.50;91.62;100791.16;4871381;29;20159;-59
2020/12/03 00:28:16;;;;;;;123.00;50.15;;;;;;;-2.47;91.46;100782.56;4868183;29;20055;-57
2020/12/03 00:30:47;;;;;;;117.32;51.67;;;;;;;-2.40;91.77;100776.50;4873766;29;20407;-57
2020/12/03 00:33:17;;;;;;;122.85;49.20;;;;;;;-2.46;91.25;100776.53;4887699;29;20620;-56
2020/12/03 00:35:48;;;;;;;112.75;48.03;;;;;;;-2.45;90.68;100779.09;4877175;29;20084;-60
2020/12/03 00:38:17;;;;;;;116.10;47.63;;;;;;;-2.53;91.21;100782.56;4879069;29;20571;-55
2020/12/03 00:40:45;;;;;;;124.40;49.38;;;;;;;-2.46;91.14;100789.44;4891423;29;20044;-59
2020/12/03 00:43:11;;;;;;;131.15;51.35;;;;;;;-2.43;91.41;100786.81;4875002;29;20297;-58
2020/12/03 00:45:38;;;;;;;115.63;51.67;;;;;;;-2.53;91.40;100785.13;4890725;29;20143;-57
2020/12/03 00:48:05;;;;;;;134.07;52.28;;;;;;;-2.47;90.97;100780.00;4872045;29;20057;-57
2020/12/03 00:50:32;;;;;;;126.50;53.53;;;;;;;-2.43;91.49;100774.81;4891591;29;20096;-58
2020/12/03 00:52:58;;;;;;;129.85;52.85;;;;;;;-2.47;91.21;100783.41;4891618;29;20103;-58
2020/12/03 00:55:25;;;;;;;119.95;49.70;;;;;;;-2.48;90.88;100776.53;4893080;29;20535;-57
2020/12/03 00:57:52;;;;;;;121.40;52.17;;;;;;;-2.48;91.06;100765.34;4892459;29;20053;-57
2020/12/03 01:00:21;;;;;;;118.22;49.20;;;;;;;-2.50;90.99;100761.94;4878058;29;20116;-58
2020/12/03 01:02:50;;;;;;;115.93;50.55;;;;;;;-2.64;91.51;100762.00;4874939;29;20056;-55
2020/12/03 01:05:17;;;;;;;124.60;51.75;;;;;;;-2.59;91.49;100765.41;4875977;29;20096;-62
2020/12/03 01:07:45;;;;;;;120.85;53.10;;;;;;;-2.59;91.43;100763.69;4879225;29;20848;-59
2020/12/03 01:10:20;;;;;;;123.03;50.75;;;;;;;-2.55;91.21;100764.53;4888863;29;20057;-58
2020/12/03 01:12:48;;;;;;;115.88;48.78;;;;;;;-2.60;91.19;100761.97;4878847;29;20132;-60
2020/12/03 01:15:15;;;;;;;116.93;48.40;;;;;;;-2.61;91.29;100754.25;4877634;29;20535;-58
2020/12/03 01:17:43;;;;;;;122.93;48.70;;;;;;;-2.72;91.37;100749.13;4875603;29;20057;-58
2020/12/03 01:20:22;;;;;;;134.10;50.63;;;;;;;-2.70;91.09;100742.25;4892941;29;20119;-58
2020/12/03 01:22:49;;;;;;;123.88;50.97;;;;;;;-2.71;91.36;100732.78;4872379;29;20044;-57
2020/12/03 01:25:17;;;;;;;120.93;50.65;;;;;;;-2.75;91.60;100730.22;4879549;29;20061;-58
2020/12/03 01:27:44;;;;;;;124.47;50.97;;;;;;;-2.77;92.22;100737.97;4881440;29;20076;-59
2020/12/03 01:30:12;;;;;;;135.95;52.38;;;;;;;-2.82;91.77;100731.97;4875790;29;20050;-57
2020/12/03 01:32:39;;;;;;;123.28;50.78;;;;;;;-2.83;92.06;100731.13;4874716;29;20056;-55
2020/12/03 01:35:08;;;;;;;122.43;51.50;;;;;;;-2.83;91.51;100720.81;4890147;29;20060;-57
2020/12/03 01:37:35;;;;;;;127.78;53.20;;;;;;;-2.74;91.22;100712.19;4878946;29;20230;-58
2020/12/03 01:40:05;;;;;;;126.68;54.25;;;;;;;-2.70;91.83;100715.59;4875191;29;20076;-59
2020/12/03 01:42:32;;;;;;;122.72;51.88;;;;;;;-2.74;91.16;100706.19;4875917;29;20061;-59
2020/12/03 01:45:01;;;;;;;130.80;53.45;;;;;;;-2.70;91.42;100713.91;4875832;29;20045;-58
2020/12/03 01:47:35;;;;;;;127.63;51.45;;;;;;;-2.56;91.21;100700.97;4889984;29;20068;-59
2020/12/03 01:50:03;;;;;;;121.90;50.33;;;;;;;-2.63;90.89;100705.28;4889614;29;20053;-57
2020/12/03 01:52:30;;;;;;;122.30;51.30;;;;;;;-2.68;91.16;100690.69;4889044;29;20072;-62
2020/12/03 01:54:56;;;;;;;124.10;50.47;;;;;;;-2.68;91.26;100694.13;4891447;29;20057;-56
2020/12/03 01:57:48;;;;;;;136.55;53.88;;;;;;;-2.73;91.00;100693.28;4882014;29;20060;-57
2020/12/03 02:00:18;;;;;;;128.27;53.50;;;;;;;-2.71;90.77;100678.66;4880125;29;20069;-59
2020/12/03 02:02:46;;;;;;;134.80;53.17;;;;;;;-2.60;90.90;100676.06;4880435;29;20057;-59
2020/12/03 02:05:17;;;;;;;124.78;50.10;;;;;;;-2.66;90.61;100664.03;4921435;23;20055;-59
2020/12/03 02:07:44;;;;;;;127.93;51.88;;;;;;;-2.69;90.88;100664.09;4931714;29;20076;-60
2020/12/03 02:10:12;;;;;;;126.93;51.03;;;;;;;-2.69;90.39;100660.66;4924903;29;20416;-59
2020/12/03 02:12:39;;;;;;;126.38;54.03;;;;;;;-2.64;90.24;100662.34;4926812;29;20415;-59
2020/12/03 02:15:08;;;;;;;122.57;50.38;;;;;;;-2.69;90.42;100650.34;4924498;29;20501;-58
2020/12/03 02:17:35;;;;;;;123.18;49.38;;;;;;;-2.67;90.48;100649.47;4937203;29;20050;-55
2020/12/03 02:20:09;;;;;;;120.63;49.55;;;;;;;-2.56;90.24;100634.81;4931281;29;20064;-57
2020/12/03 02:22:36;;;;;;;127.50;51.67;;;;;;;-2.58;89.83;100636.53;4905685;29;20085;-58
2020/12/03 02:25:05;;;;;;;124.32;50.95;;;;;;;-2.75;90.19;100633.16;4924926;29;20070;-62
2020/12/03 02:27:31;;;;;;;125.78;51.45;;;;;;;-2.68;90.49;100621.13;4928256;29;20058;-62
2020/12/03 02:29:58;;;;;;;126.78;53.70;;;;;;;-2.70;90.23;100621.16;4913828;29;20087;-62
2020/12/03 02:32:25;;;;;;;129.60;53.00;;;;;;;-2.72;89.99;100616.84;4935179;29;20066;-57
2020/12/03 02:34:52;;;;;;;129.43;50.58;;;;;;;-2.63;90.26;100611.66;4931050;29;20420;-61
2020/12/03 02:37:19;;;;;;;130.18;52.53;;;;;;;-2.57;89.71;100606.44;4932835;29;20535;-58
2020/12/03 02:39:45;;;;;;;133.20;53.08;;;;;;;-2.68;89.45;100600.50;4924915;29;20062;-58
2020/12/03 02:42:14;;;;;;;133.52;52.10;;;;;;;-2.65;89.84;100608.25;4930292;29;20063;-61
2020/12/03 02:44:43;;;;;;;131.63;55.70;;;;;;;-2.69;89.93;100594.50;4929905;29;20083;-62
2020/12/03 02:47:11;;;;;;;135.43;53.95;;;;;;;-2.70;89.62;100594.50;4933965;29;20370;-57
2020/12/03 02:49:41;;;;;;;145.40;56.88;;;;;;;-2.71;89.54;100583.34;4923722;29;20062;-58
2020/12/03 02:52:10;;;;;;;139.98;55.15;;;;;;;-2.80;89.85;100578.22;4927142;29;20138;-60
2020/12/03 02:54:37;;;;;;;133.43;55.38;;;;;;;-2.70;89.59;100581.63;4929632;29;20062;-58
2020/12/03 02:57:04;;;;;;;135.25;51.83;;;;;;;-2.68;89.71;100579.91;4934980;29;21351;-59
2020/12/03 02:59:31;;;;;;;134.82;53.50;;;;;;;-2.75;89.64;100576.47;4930387;29;20154;-57
2020/12/03 03:01:57;;;;;;;141.57;54.30;;;;;;;-2.68;89.56;100572.16;4926615;29;20614;-59
2020/12/03 03:04:25;;;;;;;139.75;56.38;;;;;;;-2.69;89.67;100573.03;4925642;29;20064;-58
2020/12/03 03:06:52;;;;;;;129.80;54.13;;;;;;;-2.61;89.08;100569.56;4923907;29;20103;-58
2020/12/03 03:09:20;;;;;;;143.50;56.20;;;;;;;-2.71;89.01;100555.00;4918421;29;20064;-61
2020/12/03 03:11:47;;;;;;;137.02;54.08;;;;;;;-2.76;89.17;100555.91;4921253;29;20059;-61
2020/12/03 03:14:15;;;;;;;138.90;56.05;;;;;;;-2.79;89.47;100554.22;4931404;29;20052;-60
2020/12/03 03:16:42;;;;;;;132.18;55.38;;;;;;;-2.86;89.38;100552.53;4924768;29;20055;-62
2020/12/03 03:19:14;;;;;;;136.80;53.75;;;;;;;-2.82;89.41;100549.06;4923883;29;20055;-58
2020/12/03 03:21:41;;;;;;;144.32;53.83;;;;;;;-2.82;90.00;100551.63;4927207;29;20047;-59
2020/12/03 03:24:08;;;;;;;152.55;56.30;;;;;;;-2.82;89.79;100543.91;4923765;29;20046;-58
2020/12/03 03:26:36;;;;;;;144.05;55.95;;;;;;;-2.76;89.51;100545.59;4913521;29;20071;-60
2020/12/03 03:29:04;;;;;;;148.90;58.97;;;;;;;-2.79;89.65;100543.91;4926301;29;20059;-62
2020/12/03 03:31:32;;;;;;;149.63;59.70;;;;;;;-2.88;90.27;100541.34;4928021;29;20051;-60
2020/12/03 03:33:59;;;;;;;143.30;54.92;;;;;;;-2.90;89.48;100538.78;4933539;29;20563;-59
2020/12/03 03:36:26;;;;;;;149.52;55.97;;;;;;;-2.85;89.72;100549.06;4932034;29;20052;-61
2020/12/03 03:38:53;;;;;;;147.93;56.55;;;;;;;-2.85;89.23;100551.66;4905740;29;20055;-57
2020/12/03 03:41:20;;;;;;;154.77;56.95;;;;;;;-2.75;90.39;100555.03;4929049;29;20425;-56
2020/12/03 03:43:47;;;;;;;142.80;60.00;;;;;;;-2.79;89.71;100543.91;4929080;29;20044;-60
2020/12/03 03:46:13;;;;;;;148.68;57.47;;;;;;;-2.78;89.25;100547.34;4888265;29;20537;-60
2020/12/03 03:48:41;;;;;;;151.20;59.30;;;;;;;-2.73;89.65;100541.28;4921832;29;20059;-59
2020/12/03 03:51:08;;;;;;;152.93;58.97;;;;;;;-2.70;89.53;100527.50;4922753;29;20102;-59
2020/12/03 03:53:35;;;;;;;152.10;60.17;;;;;;;-2.67;88.74;100524.91;4926799;29;20456;-59
2020/12/03 03:56:02;;;;;;;142.63;59.17;;;;;;;-2.71;89.36;100526.66;4925554;29;20464;-55
2020/12/03 03:58:28;;;;;;;150.38;57.38;;;;;;;-2.66;88.62;100529.19;4933047;29;20062;-58
2020/12/03 04:00:55;;;;;;;156.43;57.88;;;;;;;-2.69;88.70;100517.22;4928376;29;20074;-58
2020/12/03 04:03:22;;;;;;;159.85;60.30;;;;;;;-2.74;88.93;100507.81;4934054;28;20047;-57
2020/12/03 04:05:52;;;;;;;152.07;61.17;;;;;;;-2.82;88.95;100500.97;4930059;29;20135;-57
2020/12/03 04:08:21;;;;;;;148.52;55.97;;;;;;;-2.77;88.98;100503.50;4936907;29;20063;-56
2020/12/03 04:10:50;;;;;;;145.57;58.20;;;;;;;-2.82;89.22;100498.38;4930603;29;20060;-57
2020/12/03 04:13:18;;;;;;;159.10;59.70;;;;;;;-2.86;89.59;100501.00;4930607;29;20054;-54
2020/12/03 04:15:45;;;;;;;160.68;61.33;;;;;;;-2.88;89.96;100487.25;4925354;29;20060;-60
2020/12/03 04:18:12;;;;;;;150.95;60.50;;;;;;;-2.81;89.12;100497.53;4926025;29;20066;-58
2020/12/03 04:20:39;;;;;;;172.20;62.65;;;;;;;-2.85;89.55;100489.81;4913894;29;20055;-59
2020/12/03 04:23:07;;;;;;;158.23;59.35;;;;;;;-2.82;89.68;100492.38;4919785;29;20054;-55
2020/12/03 04:25:34;;;;;;;155.68;58.10;;;;;;;-2.84;89.58;100488.94;4907029;29;20525;-56
2020/12/03 04:28:01;;;;;;;155.93;59.38;;;;;;;-2.76;89.60;100487.19;4907723;29;20056;-56
2020/12/03 04:30:28;;;;;;;153.60;58.30;;;;;;;-2.78;88.96;100483.78;4925911;29;20066;-52
2020/12/03 04:32:54;;;;;;;157.05;59.30;;;;;;;-2.65;89.01;100480.25;4924244;29;20052;-55
2020/12/03 04:35:21;;;;;;;155.05;58.97;;;;;;;-2.67;89.27;100481.13;4923827;29;20409;-55
2020/12/03 04:37:49;;;;;;;157.35;61.10;;;;;;;-2.66;88.96;100478.50;4925550;29;20055;-55
2020/12/03 04:40:24;;;;;;;149.77;55.67;;;;;;;-2.56;88.76;100464.72;4926143;29;20056;-55
2020/12/03 04:42:51;;;;;;;144.07;55.83;;;;;;;-2.60;88.41;100475.06;4934828;29;20055;-55
2020/12/03 04:45:44;;;;;;;148.93;57.47;;;;;;;-2.65;88.41;100476.81;4924453;29;20080;-53
2020/12/03 04:48:33;;;;;;;149.50;58.63;;;;;;;-2.58;88.34;100475.88;4927339;29;20055;-54
2020/12/03 04:51:38;;;;;;;160.27;55.00;;;;;;;-2.61;88.39;100474.22;4925054;29;20173;-55
2020/12/03 04:54:23;;;;;;;163.15;58.38;;;;;;;-2.60;88.78;100477.63;4925911;29;20538;-54
2020/12/03 04:57:02;;;;;;;166.18;61.13;;;;;;;-2.50;88.64;100470.69;4912173;29;20070;-54
2020/12/03 04:59:51;;;;;;;152.65;57.95;;;;;;;-2.47;88.09;100460.34;4925434;29;20860;-56
2020/12/03 05:02:50;;;;;;;144.93;56.08;;;;;;;-2.40;87.75;100459.41;4921991;29;20071;-54
2020/12/03 05:05:55;;;;;;;149.25;56.13;;;;;;;-2.23;87.51;100454.97;4912394;29;20510;-55
2020/12/03 05:08:29;;;;;;;151.85;57.92;;;;;;;-2.24;86.98;100450.69;4914953;29;20051;-57
2020/12/03 05:10:56;;;;;;;149.57;57.00;;;;;;;-2.32;87.43;100449.91;4911716;29;20066;-56
2020/12/03 05:13:29;;;;;;;155.43;59.45;;;;;;;-2.32;87.56;100444.75;4908507;29;20122;-57
2020/12/03 05:15:59;;;;;;;148.68;58.35;;;;;;;-2.20;87.27;100444.63;4910753;29;20051;-56
2020/12/03 05:18:44;;;;;;;147.35;55.25;;;;;;;-2.22;86.57;100440.34;4913835;29;20059;-53
2020/12/03 05:21:15;;;;;;;146.48;57.10;;;;;;;-2.11;86.77;100431.66;4925606;29;20063;-59
2020/12/03 05:23:42;;;;;;;148.68;56.05;;;;;;;-2.09;86.25;100436.78;4903637;29;20052;-52
2020/12/03 05:26:16;;;;;;;139.85;55.78;;;;;;;-2.13;86.16;100433.38;4930062;29;20062;-55
2020/12/03 05:28:49;;;;;;;137.80;56.72;;;;;;;-2.16;86.40;100436.00;4927493;29;20063;-53
2020/12/03 05:31:23;;;;;;;160.50;59.03;;;;;;;-2.18;86.47;100432.56;4910042;29;20516;-57
2020/12/03 05:33:51;;;;;;;149.93;56.42;;;;;;;-1.92;85.48;100434.88;4927969;29;20047;-58
2020/12/03 05:36:22;;;;;;;138.38;55.20;;;;;;;-1.93;85.29;100437.50;4933198;29;20060;-56
2020/12/03 05:38:49;;;;;;;150.32;55.45;;;;;;;-1.96;85.48;100424.63;4934926;29;20070;-55
2020/12/03 05:41:17;;;;;;;142.38;54.97;;;;;;;-1.85;85.44;100430.50;4926211;29;20078;-55
2020/12/03 05:43:44;;;;;;;141.18;55.25;;;;;;;-1.87;85.32;100419.34;4925729;29;20566;-54
2020/12/03 05:46:12;;;;;;;148.82;57.00;;;;;;;-1.87;85.44;100425.38;4920632;29;20390;-58
2020/12/03 05:48:39;;;;;;;140.27;56.15;;;;;;;-1.88;85.22;100425.38;4909552;29;20528;-54
2020/12/03 05:51:24;;;;;;;150.38;59.40;;;;;;;-1.83;85.36;100416.72;4927378;29;20432;-56
2020/12/03 05:54:00;;;;;;;139.77;53.90;;;;;;;-1.82;84.81;100413.25;4896625;29;20129;-54
2020/12/03 05:56:29;;;;;;;153.68;57.28;;;;;;;-1.83;84.94;100408.97;4916708;29;20447;-57
2020/12/03 05:59:10;;;;;;;143.52;56.88;;;;;;;-1.71;84.60;100409.69;4909165;29;20147;-54
2020/12/03 06:01:38;;;;;;;149.85;57.60;;;;;;;-1.62;84.77;100402.72;4926428;29;20067;-55
2020/12/03 06:04:17;;;;;;;146.00;55.75;;;;;;;-1.68;84.30;100396.75;4920392;29;20134;-54
2020/12/03 06:07:10;;;;;;;136.15;53.78;;;;;;;-1.75;83.98;100396.00;4920520;29;20051;-54
2020/12/03 06:10:04;;;;;;;141.77;54.67;;;;;;;-1.65;84.78;100395.00;4896447;29;20150;-56
2020/12/03 06:12:41;;;;;;;137.38;54.00;;;;;;;-1.74;83.62;100400.28;4915864;29;20074;-55
2020/12/03 06:15:44;;;;;;;138.85;54.00;;;;;;;-1.72;84.14;100398.50;4891293;29;20398;-53
2020/12/03 06:18:48;;;;;;;131.63;51.15;;;;;;;-1.79;84.16;100395.16;4906494;29;20453;-54
2020/12/03 06:21:34;;;;;;;136.45;52.13;;;;;;;-1.72;84.43;100401.09;4914364;29;20134;-55
2020/12/03 06:24:15;;;;;;;130.95;52.60;;;;;;;-1.65;84.16;100407.91;4925084;29;20143;-56
2020/12/03 06:27:23;;;;;;;134.70;53.00;;;;;;;-1.58;84.06;100400.91;4906482;29;20151;-54
2020/12/03 06:29:53;;;;;;;141.18;54.60;;;;;;;-1.70;83.72;100390.78;4921523;29;20064;-56
2020/12/03 06:32:42;;;;;;;146.32;53.45;;;;;;;-1.62;84.13;100401.81;4927935;29;20082;-52
2020/12/03 06:35:39;;;;;;;142.82;54.15;;;;;;;-1.67;84.34;100395.88;4920910;29;20429;-57
2020/12/03 06:38:22;;;;;;;130.82;52.00;;;;;;;-1.63;83.88;100400.97;4913880;29;20059;-56
2020/12/03 06:40:57;;;;;;;139.07;55.90;;;;;;;-1.62;83.66;100400.13;4920767;29;20065;-53
2020/12/03 06:43:33;;;;;;;134.48;56.08;;;;;;;-1.57;84.01;100389.75;4907186;29;20047;-59
2020/12/03 06:46:02;;;;;;;;;;;;;;;-1.47;82.64;100398.22;4904409;29;20052;-53
2020/12/03 06:48:54;;;;;;;128.13;49.60;;;;;;;-1.55;83.34;100395.72;4914986;29;19990;-54
2020/12/03 06:51:36;;;;;;;136.20;53.55;;;;;;;-1.47;84.35;100400.81;4917420;29;20055;-57
2020/12/03 06:54:23;;;;;;;137.95;52.05;;;;;;;-1.60;84.12;100400.94;4907551;29;20138;-55
2020/12/03 06:57:01;;;;;;;145.00;52.55;;;;;;;-1.68;84.60;100387.28;4908692;29;20062;-56
2020/12/03 07:00:06;;;;;;;128.73;51.15;;;;;;;-1.67;83.94;100395.88;4925760;29;20086;-56
2020/12/03 07:02:56;;;;;;;142.93;51.30;;;;;;;-1.65;83.48;100389.84;4922844;29;20052;-57
2020/12/03 07:05:29;;;;;;;130.05;50.92;;;;;;;-1.67;83.99;100383.81;4902306;29;20469;-57
2020/12/03 07:08:17;;;;;;;127.18;48.53;;;;;;;-1.62;84.12;100383.75;4902987;29;20063;-56
2020/12/03 07:11:05;;;;;;;138.48;51.90;;;;;;;-1.60;83.90;100377.72;4922281;29;20056;-57
2020/12/03 07:14:11;;;;;;;131.50;51.40;;;;;;;-1.47;83.50;100375.84;4925855;29;20532;-54
2020/12/03 07:17:15;;;;;;;129.48;51.42;;;;;;;-1.38;82.77;100378.28;4909963;29;20061;-55
2020/12/03 07:19:57;;;;;;;134.38;50.40;;;;;;;-1.49;82.91;100374.97;4925077;29;20060;-57
2020/12/03 07:22:38;;;;;;;138.35;49.65;;;;;;;-1.38;82.94;100367.94;4920966;29;20073;-52
2020/12/03 07:25:06;;;;;;;130.07;51.13;;;;;;;-1.30;82.42;100365.28;4904113;29;20067;-54
2020/12/03 07:27:58;;;;;;;133.15;52.75;;;;;;;-1.57;82.17;100359.63;4901975;29;20085;-55
2020/12/03 07:30:30;;;;;;;133.23;50.17;;;;;;;-1.54;82.67;100358.72;4925597;29;20059;-51
2020/12/03 07:33:03;;;;;;;126.65;50.47;;;;;;;-1.57;83.09;100357.03;4927031;29;20052;-56
2020/12/03 07:35:37;;;;;;;127.82;49.90;;;;;;;-1.59;83.22;100357.91;4880583;29;20075;-55
2020/12/03 07:38:50;;;;;;;127.18;51.65;;;;;;;-1.51;82.63;100347.50;4893432;29;20059;-55
2020/12/03 07:41:19;;;;;;;131.20;50.38;;;;;;;-1.45;82.79;100344.81;4902510;29;20070;-54
2020/12/03 07:43:47;;;;;;;140.00;54.22;;;;;;;-1.34;82.58;100338.63;4923246;29;20067;-59
2020/12/03 07:46:28;;;;;;;128.18;53.42;;;;;;;-1.19;83.34;100341.84;4917477;29;20055;-54
2020/12/03 07:48:56;;;;;;;121.40;49.13;;;;;;;-1.28;81.92;100338.53;4921584;29;20131;-55
2020/12/03 07:51:26;;;;;;;122.70;49.03;;;;;;;-1.36;82.02;100339.53;4921997;29;20798;-56
2020/12/03 07:54:17;;;;;;;124.38;51.22;;;;;;;-1.30;82.27;100344.63;4927746;29;20083;-52
2020/12/03 07:56:46;;;;;;;125.93;47.80;;;;;;;-1.34;81.85;100332.63;4921254;29;20060;-57
2020/12/03 07:59:22;;;;;;;115.95;49.65;;;;;;;-1.35;82.31;100336.94;4907121;29;20048;-56
2020/12/03 08:01:55;;;;;;;122.38;48.75;;;;;;;-1.32;81.70;100336.88;4919436;29;20279;-50
2020/12/03 08:04:31;;;;;;;123.22;46.75;;;;;;;-1.33;81.89;100322.25;4903631;29;20058;-52
2020/12/03 08:07:04;;;;;;;117.20;47.65;;;;;;;-1.27;81.86;100316.13;4905403;29;20075;-53
2020/12/03 08:09:45;;;;;;;132.43;52.05;;;;;;;-1.16;81.55;100309.09;4918118;29;20420;-51
2020/12/03 08:12:13;;;;;;;121.22;48.20;;;;;;;-1.11;80.85;100309.88;4903513;29;20142;-53
2020/12/03 08:14:48;;;;;;;111.82;45.75;;;;;;;-1.09;80.39;100312.41;4919807;29;20220;-50
2020/12/03 08:17:20;;;;;;;114.93;46.67;;;;;;;-1.06;80.09;100318.38;4924473;29;20058;-57
2020/12/03 08:19:48;;;;;;;112.65;44.17;;;;;;;-1.09;79.69;100300.34;4926886;29;20047;-55
2020/12/03 08:22:35;;;;;;;130.10;48.75;;;;;;;-1.09;80.00;100286.56;4903179;29;20147;-55
2020/12/03 08:25:05;;;;;;;111.32;45.45;;;;;;;-1.11;79.92;100283.19;4904440;29;20436;-59
2020/12/03 08:27:32;;;;;;;112.22;45.45;;;;;;;-1.12;80.10;100290.09;4904327;29;20547;-55
2020/12/03 08:29:58;;;;;;;110.72;43.50;;;;;;;-1.06;79.20;100281.38;4901809;29;20096;-53
2020/12/03 08:32:26;;;;;;;111.63;43.45;;;;;;;-1.21;80.05;100291.97;4894803;29;20179;-55
2020/12/03 08:34:53;;;;;;;105.72;46.17;;;;;;;-1.22;80.41;100285.06;4912382;29;20063;-56
2020/12/03 08:37:23;;;;;;;116.40;48.65;;;;;;;-1.07;80.29;100284.84;4920888;29;20144;-53
2020/12/03 08:39:52;;;;;;;108.97;44.15;;;;;;;-1.04;79.68;100285.66;4893229;29;20366;-55
2020/12/03 08:42:19;;;;;;;113.50;46.63;;;;;;;-1.12;79.80;100282.34;4924340;29;20047;-57
2020/12/03 08:44:47;;;;;;;102.55;41.10;;;;;;;-1.07;79.33;100284.84;4902640;29;20054;-54
2020/12/03 08:47:30;;;;;;;105.47;46.50;;;;;;;-0.88;79.03;100293.97;4919402;29;20105;-59
2020/12/03 08:49:57;;;;;;;94.47;39.80;;;;;;;-0.97;79.38;100291.56;4923150;29;20052;-51
2020/12/03 08:52:31;;;;;;;103.65;41.80;;;;;;;-0.98;79.25;100292.44;4912014;29;20548;-52
2020/12/03 08:55:08;;;;;;;108.75;47.13;;;;;;;-0.95;79.00;100288.94;4909145;29;20474;-56
2020/12/03 08:57:37;;;;;;;118.20;47.05;;;;;;;-0.91;79.00;100288.00;4918681;29;20036;-58
2020/12/03 09:00:07;;;;;;;110.40;43.20;;;;;;;-0.76;78.17;100295.50;4908308;29;20067;-56
2020/12/03 09:02:42;;;;;;;110.03;42.63;;;;;;;-0.86;78.70;100292.19;4915872;29;20046;-56
2020/12/03 09:05:09;;;;;;;109.75;44.25;;;;;;;-0.84;78.76;100282.72;4921525;29;20071;-54
2020/12/03 09:07:44;;;;;;;109.63;44.50;;;;;;;-0.81;78.82;100274.03;4905890;29;20054;-53
2020/12/03 09:10:12;;;;;;;96.75;41.42;;;;;;;-0.82;78.46;100272.34;4920935;29;20556;-58
2020/12/03 09:12:40;;;;;;;100.38;42.95;;;;;;;-0.82;78.84;100267.16;4924177;29;20055;-54
2020/12/03 09:15:08;;;;;;;98.32;42.20;;;;;;;-0.79;78.37;100264.53;4925671;29;20040;-56
2020/12/03 09:17:39;;;;;;;111.60;42.85;;;;;;;-0.81;77.91;100254.22;4924643;29;20063;-54
2020/12/03 09:20:07;;;;;;;110.75;43.50;;;;;;;-0.82;78.27;100252.50;4910781;29;20056;-54
2020/12/03 09:22:35;;;;;;;102.28;43.95;;;;;;;-0.81;78.62;100245.59;4904791;29;20060;-55
2020/12/03 09:25:05;;;;;;;94.53;42.13;;;;;;;-0.67;77.75;100240.19;4923575;29;20048;-52
2020/12/03 09:27:42;;;;;;;94.68;40.15;;;;;;;-0.82;78.29;100230.97;4921597;29;20063;-54
2020/12/03 09:30:17;;;;;;;95.75;39.65;;;;;;;-0.74;78.12;100221.34;4926514;29;20058;-56
2020/12/03 09:32:51;;;;;;;99.70;40.72;;;;;;;-0.66;77.70;100216.91;4910069;29;20062;-58
2020/12/03 09:35:19;;;;;;;91.97;38.92;;;;;;;-0.71;77.68;100218.72;4905233;29;20044;-57
2020/12/03 09:37:45;;;;;;;98.65;38.78;;;;;;;-0.63;77.52;100208.22;4915950;29;20044;-56
2020/12/03 09:40:13;;;;;;;100.65;41.33;;;;;;;-0.62;77.36;100209.94;4901714;29;20077;-55
2020/12/03 09:42:47;;;;;;;94.07;40.35;;;;;;;-0.63;77.90;100210.78;4902537;29;20068;-57
2020/12/03 09:45:21;;;;;;;91.28;40.45;;;;;;;-0.60;77.31;100197.81;4920744;29;20071;-51
2020/12/03 09:47:48;;;;;;;95.78;39.08;;;;;;;-0.51;77.84;100203.66;4920939;29;20116;-55
2020/12/03 09:50:16;;;;;;;100.88;40.55;;;;;;;-0.47;77.08;100203.59;4923457;29;20051;-54
2020/12/03 09:52:44;;;;;;;91.90;39.60;;;;;;;-0.42;76.55;100201.75;4907297;29;20048;-56
2020/12/03 09:55:12;;;;;;;90.10;38.10;;;;;;;-0.30;77.09;100188.59;4902794;29;20146;-56
2020/12/03 09:57:39;;;;;;;91.35;38.45;;;;;;;-0.27;75.71;100175.56;4919313;29;20051;-56
2020/12/03 10:00:07;;;;;;;84.15;37.05;;;;;;;-0.37;76.50;100181.81;4924976;29;20063;-54
2020/12/03 10:02:54;;;;;;;77.05;37.42;;;;;;;-0.32;76.99;100172.22;4916390;29;20386;-53
2020/12/03 10:05:48;;;;;;;92.30;39.35;;;;;;;-0.15;76.83;100171.88;4910301;29;20058;-51
2020/12/03 10:08:44;;;;;;;92.85;38.47;;;;;;;-0.28;76.20;100173.88;4907704;29;20048;-54
2020/12/03 10:11:56;;;;;;;90.35;37.85;;;;;;;-0.06;75.72;100175.09;4925608;29;20329;-57
2020/12/03 10:14:36;;;;;;;88.70;37.20;;;;;;;-0.12;76.04;100164.91;4890217;29;20063;-49
2020/12/03 10:17:05;;;;;;;88.70;37.63;;;;;;;-0.14;75.72;100165.81;4921441;29;20524;-51
2020/12/03 10:19:40;;;;;;;91.32;37.60;;;;;;;-0.14;75.85;100161.47;4918519;29;20056;-58
2020/12/03 10:22:12;;;;;;;73.10;32.45;;;;;;;-0.10;75.14;100157.09;4911001;29;20055;-57
2020/12/03 10:24:45;;;;;;;81.72;36.17;;;;;;;0.01;75.66;100147.34;4908174;29;20143;-57
2020/12/03 10:27:25;;;;;;;83.05;37.67;;;;;;;0.17;74.35;100137.47;4907961;29;20559;-56
2020/12/03 10:30:00;;;;;;;87.07;37.33;;;;;;;0.36;74.08;100136.16;4917154;29;20540;-54
2020/12/03 10:32:27;;;;;;;78.38;37.58;;;;;;;0.39;73.93;100125.69;4922763;29;20520;-53
2020/12/03 10:34:54;;;;;;;80.95;35.83;;;;;;;0.21;74.29;100118.41;4919610;29;20596;-55
2020/12/03 10:37:33;;;;;;;76.80;34.85;;;;;;;0.36;73.77;100119.75;4909246;29;20279;-54
2020/12/03 10:40:15;;;;;;;84.13;35.40;;;;;;;0.27;73.62;100107.03;4920384;29;20052;-57
2020/12/03 10:43:04;;;;;;;87.30;36.53;;;;;;;0.34;73.82;100111.19;4908615;29;20070;-54
2020/12/03 10:45:35;;;;;;;86.18;36.15;;;;;;;0.52;72.88;100089.16;4930976;23;20594;-76
2020/12/03 10:48:19;;;;;;;80.50;35.63;;;;;;;0.35;73.54;100090.41;4926649;29;20048;-77
2020/12/03 10:50:50;;;;;;;83.85;36.38;;;;;;;0.23;74.41;100086.41;4925325;29;20075;-77
2020/12/03 10:53:47;;;;;;;87.25;38.85;;;;;;;0.22;73.99;100082.09;4929452;29;20067;-76
2020/12/03 10:56:15;;;;;;;;;;;;;;;0.21;74.02;100075.25;4926185;29;20468;-77
2020/12/03 10:59:11;;;;;;;87.03;37.15;;;;;;;0.21;73.68;100066.63;4938713;29;19932;-76
2020/12/03 11:01:38;;;;;;;78.43;36.03;;;;;;;0.31;73.99;100064.66;4929413;29;20071;-76
2020/12/03 11:04:10;;;;;;;87.45;37.22;;;;;;;0.27;73.65;100052.66;4931558;29;20048;-78
2020/12/03 11:06:37;;;;;;;80.50;38.47;;;;;;;0.10;74.22;100060.88;4919031;29;20051;-78
2020/12/03 11:09:04;;;;;;;85.95;37.15;;;;;;;0.01;75.04;100056.78;4913703;28;20062;-85
2020/12/03 11:11:37;;;;;;;79.95;35.55;;;;;;;0.13;74.98;100056.47;4933539;29;20044;-79
2020/12/03 11:14:08;;;;;;;95.53;40.72;;;;;;;0.45;75.80;100053.06;4936163;29;20051;-76
2020/12/03 11:16:38;;;;;;;74.07;35.20;;;;;;;0.59;73.29;100046.66;4921157;29;20055;-75
2020/12/03 11:19:25;;;;;;;84.63;37.17;;;;;;;0.37;74.01;100042.06;4951337;28;20054;-74
2020/12/03 11:22:11;;;;;;;79.78;34.78;;;;;;;0.43;73.64;100036.69;4943986;29;20048;-75
2020/12/03 11:24:44;;;;;;;81.88;37.17;;;;;;;0.42;73.70;100024.66;4952544;28;20043;-76
2020/12/03 11:27:17;;;;;;;83.65;34.88;;;;;;;0.33;73.74;100021.47;4954955;28;20139;-75
2020/12/03 11:29:44;;;;;;;73.07;33.20;;;;;;;0.30;74.20;100021.53;4937247;29;20082;-77
2020/12/03 11:32:25;;;;;;;83.50;36.72;;;;;;;0.47;73.82;100014.16;4931853;29;20080;-77